Latest Weather Observations for Gladstone Airport

IDQ60801

Issued at 8:02 am EST Monday 23 January 2017 (issued every 30 minutes, with the page automatically refreshed every 10 minutes)

About weather observations | Map of weather stations | Latest weather observations for QLD | Other Formats
Station Details ID: 039326 Name: GLADSTONE AIRPORT Lat: -23.87 Lon: 151.22 Height: 16.6 m
Data from the previous 72 hours. | See also: Recent months at Gladstone Airport
Date/Time
EST
Temp
°C
App
Temp
°C
Dew
Point
°C
Rel
Hum
%
Delta-T
°C
Wind Press
QNH
hPa
Press
MSL
hPa
Rain since
9am
mm
Dir  Spd
km/h
Gust
km/h
Spd
kts
Gust
kts
23/07:30am 25.5 25.5 18.2 64 4.6 SSE 15 22 8 12 1015.0 1014.9 0.0
23/07:00am 25.1 25.4 17.8 64 4.6 SSE 13 20 7 11 1014.7 1014.6 0.0
23/06:30am 24.9 24.8 17.9 65 4.4 SSE 15 22 8 12 1014.3 1014.2 0.0
23/06:00am 24.8 25.4 17.8 65 4.4 SSE 11 19 6 10 1014.0 1013.9 0.0
23/05:30am 24.7 25.0 17.9 66 4.3 SSE 13 19 7 10 1013.6 1013.5 0.0
23/05:00am 24.8 25.5 18.0 66 4.3 SSE 11 17 6 9 1013.3 1013.2 0.0
23/04:30am 24.7 25.5 18.2 67 4.1 SSE 11 20 6 11 1013.1 1013.0 0.0
23/04:00am 24.8 25.3 18.3 67 4.1 SSE 13 19 7 10 1012.7 1012.6 0.0
23/03:30am 24.9 25.3 18.1 66 4.3 SSE 13 19 7 10 1012.6 1012.5 0.0
23/03:00am 24.9 26.4 18.1 66 4.3 SSE 7 13 4 7 1012.7 1012.6 0.0
23/02:30am 25.0 25.8 18.2 66 4.3 SSE 11 17 6 9 1012.8 1012.7 0.0
23/02:00am 25.1 26.2 18.1 65 4.4 SE 9 13 5 7 1013.0 1012.9 0.0
23/01:30am 25.3 25.7 18.2 64 4.5 SE 13 20 7 11 1013.1 1013.0 0.0
23/01:00am 25.5 25.3 18.4 65 4.5 SE 17 22 9 12 1013.3 1013.2 0.0
23/12:30am 25.7 25.9 18.6 65 4.5 SE 15 22 8 12 1013.6 1013.5 0.0
23/12:00am 25.9 25.6 18.3 63 4.8 SE 17 26 9 14 1013.9 1013.8 0.0
 
Date/Time
EST
Temp
°C
App
Temp
°C
Dew
Point
°C
Rel
Hum
%
Delta-T
°C
Wind Press
QNH
hPa
Press
MSL
hPa
Rain since
9am
mm
Dir  Spd
km/h
Gust
km/h
Spd
kts
Gust
kts
22/11:30pm 26.0 25.8 18.4 63 4.8 SE 17 24 9 13 1014.2 1014.1 0.0
22/11:00pm 26.1 25.7 19.0 65 4.5 SE 19 28 10 15 1014.1 1014.0 0.0
22/10:30pm 26.3 25.8 19.2 65 4.6 SE 20 30 11 16 1014.2 1014.1 0.0
22/10:00pm 26.3 26.5 19.4 66 4.5 SE 17 32 9 17 1014.3 1014.2 0.0
22/09:30pm 26.3 26.4 19.2 65 4.6 SE 17 28 9 15 1014.1 1014.0 0.0
22/09:00pm 26.5 26.7 19.4 65 4.6 SE 17 26 9 14 1013.9 1013.8 0.0
22/08:30pm 26.5 26.9 19.9 67 4.3 SE 17 28 9 15 1013.8 1013.7 0.0
22/08:00pm 26.6 27.1 20.0 67 4.3 SE 17 24 9 13 1013.6 1013.5 0.0
22/07:30pm 26.9 27.8 20.0 66 4.5 SE 15 22 8 12 1013.5 1013.4 0.0
22/07:00pm 26.7 27.9 19.8 66 4.5 SE 13 20 7 11 1013.2 1013.1 0.0
22/06:30pm 26.9 27.3 19.8 65 4.6 SE 17 26 9 14 1013.1 1013.0 0.0
22/06:00pm 26.9 27.7 19.8 65 4.6 SE 15 20 8 11 1012.9 1012.8 0.0
22/05:30pm 27.1 26.6 20.0 65 4.6 SE 22 32 12 17 1012.5 1012.4 0.0
22/05:00pm 27.1 27.0 20.0 65 4.6 SE 20 30 11 16 1012.4 1012.3 0.0
22/04:30pm 26.8 26.9 20.4 68 4.2 SE 20 30 11 16 1012.2 1012.1 0.0
22/04:00pm 26.2 27.1 21.6 76 3.1 SE 19 30 10 16 1012.3 1012.2 0.0
22/03:30pm 26.6 25.9 21.1 72 3.6 ESE 26 33 14 18 1012.6 1012.5 0.0
22/03:00pm 26.8 25.8 21.3 72 3.7 ESE 28 43 15 23 1012.7 1012.6 0.0
22/02:30pm 25.7 25.8 21.8 79 2.6 SE 24 39 13 21 1013.0 1012.9 0.0
22/02:05pm 26.0 26.9 21.9 78 2.7 ESE 20 30 11 16 1013.1 1013.0 0.0
22/02:00pm 25.9 26.4 22.0 79 2.6 ESE 22 32 12 17 1013.2 1013.1 0.0
22/01:50pm 26.1 27.2 22.4 80 2.5 ESE 20 30 11 16 1013.2 1013.1 0.0
22/01:36pm 26.1 27.0 23.4 85 1.8 ESE 24 30 13 16 1013.3 1013.2 0.0
22/01:30pm 26.6 27.6 22.2 77 3.0 ESE 20 30 11 16 1013.3 1013.2 0.0
22/01:11pm 27.3 26.9 22.3 74 3.4 ESE 28 39 15 21 1013.2 1013.1 0.0
22/01:00pm 27.4 27.8 22.4 74 3.4 SE 24 33 13 18 1013.3 1013.2 0.0
22/12:44pm 26.2 27.8 22.9 82 2.2 ESE 19 30 10 16 1013.6 1013.5 0.0
22/12:30pm 25.3 26.7 23.5 90 1.2 SE 22 35 12 19 1013.9 1013.8 0.0
22/12:16pm 25.6 26.4 23.1 86 1.7 SE 24 35 13 19 1014.0 1013.9 0.0
22/12:00pm 27.2 28.0 22.4 75 3.2 ESE 22 33 12 18 1013.9 1013.8 0.0
22/11:30am 26.6 27.1 22.0 76 3.1 ESE 22 30 12 16 1014.2 1014.1 0.0
22/11:00am 27.3 27.0 21.8 72 3.7 ESE 26 35 14 19 1014.2 1014.1 0.0
22/10:30am 26.8 27.0 22.0 75 3.2 ESE 24 32 13 17 1014.2 1014.1 0.0
22/10:00am 27.6 28.8 22.5 74 3.4 ESE 20 30 11 16 1014.1 1014.0 0.0
22/09:30am 27.0 28.0 21.7 73 3.5 ESE 19 24 10 13 1014.0 1013.9 0.0
22/09:00am 26.3 27.5 21.5 75 3.2 SE 17 24 9 13 1013.8 1013.7 11.2
22/08:30am 26.1 28.0 22.0 78 2.7 SE 15 22 8 12 1013.8 1013.7 11.2
22/08:00am 25.9 27.4 22.0 79 2.6 SE 17 33 9 18 1013.4 1013.3 11.2
22/07:30am 25.5 27.3 21.8 80 2.5 SE 15 22 8 12 1013.0 1012.9 11.2
22/07:00am 25.6 27.4 22.5 83 2.1 SE 17 24 9 13 1012.8 1012.7 11.2
22/06:30am 25.3 28.1 23.0 87 1.6 SE 13 17 7 9 1012.5 1012.4 11.2
22/06:00am 25.0 26.6 22.9 88 1.4 SE 19 24 10 13 1012.0 1011.9 11.2
22/05:42am 25.0 26.5 23.1 89 1.3 SE 20 28 11 15 1011.7 1011.6 11.2
22/05:40am 25.0 26.5 23.1 89 1.3 SE 20 28 11 15 1011.7 1011.6 11.0
22/05:32am 25.0 26.6 23.2 90 1.2 SE 20 30 11 16 1011.5 1011.4 11.0
22/05:30am 25.0 26.2 23.2 90 1.2 SE 22 30 12 16 1011.5 1011.4 11.0
22/05:00am 25.2 26.4 23.8 92 1.0 ESE 24 32 13 17 1010.9 1010.8 8.8
22/04:30am 25.0 25.8 23.2 90 1.2 ESE 24 33 13 18 1010.7 1010.6 5.6
22/04:02am 26.2 28.9 24.2 89 1.4 SE 17 24 9 13 1010.2 1010.1 0.8
22/04:00am 26.3 29.0 24.2 88 1.4 SE 17 22 9 12 1010.2 1010.1 0.4
22/03:58am 26.4 29.1 24.1 87 1.6 SE 17 22 9 12 1010.2 1010.1 0.0
22/03:30am 28.1 32.0 24.3 80 2.6 ESE 11 15 6 8 1010.1 1010.0 0.0
22/03:28am 28.1 32.0 24.3 80 2.6 ESE 11 15 6 8 1010.0 1009.9 0.0
22/03:00am 28.0 32.3 24.2 80 2.6 E 9 13 5 7 1009.7 1009.6 0.0
22/02:30am 28.0 31.9 24.2 80 2.6 E 11 13 6 7 1009.7 1009.6 0.0
22/02:00am 28.1 32.2 23.9 78 2.9 ESE 9 13 5 7 1009.7 1009.6 0.0
22/01:30am 28.2 31.6 24.0 78 2.9 E 13 15 7 8 1009.8 1009.7 0.0
22/01:00am 28.1 32.3 24.1 79 2.8 E 9 11 5 6 1009.6 1009.5 0.0
22/12:30am 28.1 33.5 23.9 78 2.9 WSW 2 7 1 4 1009.7 1009.6 0.0
22/12:00am 28.2 32.2 23.8 77 3.0 N 9 11 5 6 1009.4 1009.3 0.0
 
Date/Time
EST
Temp
°C
App
Temp
°C
Dew
Point
°C
Rel
Hum
%
Delta-T
°C
Wind Press
QNH
hPa
Press
MSL
hPa
Rain since
9am
mm
Dir  Spd
km/h
Gust
km/h
Spd
kts
Gust
kts
21/11:30pm 28.2 32.2 23.8 77 3.0 N 9 13 5 7 1009.5 1009.4 0.0
21/11:00pm 28.2 31.3 23.6 76 3.2 NNE 13 17 7 9 1009.6 1009.5 0.0
21/10:30pm 28.4 32.0 23.8 76 3.2 NNE 11 15 6 8 1009.8 1009.7 0.0
21/10:00pm 28.5 31.9 23.4 74 3.5 N 11 11 6 6 1009.6 1009.5 0.0
21/09:30pm 28.6 32.3 23.3 73 3.6 N 9 11 5 6 1009.3 1009.2 0.0
21/09:00pm 28.9 32.2 22.6 69 4.3 N 9 13 5 7 1008.9 1008.8 0.0
21/08:30pm 28.8 31.6 23.0 71 4.0 NNE 13 17 7 9 1008.8 1008.7 0.0
21/08:00pm 28.9 32.8 23.6 73 3.7 NE 9 13 5 7 1008.6 1008.5 0.0
21/07:30pm 28.9 31.5 23.3 72 3.8 NE 15 19 8 10 1008.0 1007.9 0.0
21/07:00pm 29.1 31.7 23.3 71 4.0 NNE 15 20 8 11 1007.6 1007.5 0.0
21/06:30pm 29.5 32.0 23.2 69 4.3 NNE 15 19 8 10 1007.1 1007.0 0.0
21/06:00pm 29.9 31.6 23.1 67 4.7 NNE 19 22 10 12 1006.5 1006.4 0.0
21/05:30pm 30.4 32.5 23.1 65 5.0 NNE 17 24 9 13 1005.9 1005.8 0.0
21/05:00pm 30.6 32.3 23.0 64 5.2 NE 19 22 10 12 1005.6 1005.5 0.0
21/04:30pm 30.1 31.8 23.0 65 4.9 NE 19 26 10 14 1005.6 1005.5 0.0
21/04:00pm 30.4 31.8 22.8 64 5.2 NE 20 26 11 14 1005.8 1005.7 0.0
21/03:30pm 30.6 32.3 23.0 64 5.2 NE 19 26 10 14 1005.9 1005.8 0.0
21/03:00pm 30.8 32.2 22.9 62 5.4 ENE 20 24 11 13 1006.3 1006.2 0.0
21/02:30pm 31.2 32.4 22.5 60 5.9 ENE 20 24 11 13 1006.5 1006.4 0.0
21/02:00pm 31.6 32.7 22.0 56 6.5 ENE 19 22 10 12 1006.7 1006.6 0.0
21/01:30pm 32.8 33.4 21.0 50 7.9 ENE 19 24 10 13 1006.9 1006.8 0.0
21/01:00pm 33.3 34.4 19.7 44 9.0 NE 13 20 7 11 1007.1 1007.0 0.0
21/12:30pm 33.8 35.2 18.7 40 9.9 NNW 9 13 5 7 1007.5 1007.4 0.0
21/12:00pm 33.5 34.1 16.8 36 10.6 N 9 17 5 9 1007.9 1007.8 0.0
21/11:30am 33.2 32.9 16.5 36 10.6 NNW 13 20 7 11 1008.2 1008.1 0.0
21/11:00am 33.1 33.1 17.3 39 10.1 NNW 13 22 7 12 1008.6 1008.5 0.0
21/10:30am 31.8 32.9 18.0 43 8.9 WNW 9 17 5 9 1009.0 1008.9 0.0
21/10:00am 30.5 31.3 18.2 47 7.9 W 11 20 6 11 1009.3 1009.2 0.0
21/09:30am 30.1 30.4 18.8 50 7.3 W 15 20 8 11 1009.3 1009.2 0.0
21/09:00am 29.9 30.4 18.3 49 7.5 WNW 13 19 7 10 1009.3 1009.2 0.0
21/08:30am 29.3 29.9 18.7 52 6.8 WNW 13 17 7 9 1009.5 1009.4 0.0
21/08:00am 27.6 28.8 19.1 59 5.5 NNW 11 15 6 8 1009.3 1009.2 0.0
21/07:30am 26.9 28.2 19.3 63 4.9 NW 11 17 6 9 1009.1 1009.0 0.0
21/07:00am 25.8 28.0 19.7 69 4.0 W 7 13 4 7 1009.3 1009.2 0.0
21/06:30am 25.0 27.4 20.0 74 3.2 SW 7 11 4 6 1009.1 1009.0 0.0
21/06:00am 23.9 26.8 19.8 78 2.6 W 4 7 2 4 1008.7 1008.6 0.0
21/05:30am 23.6 25.1 19.7 79 2.5 SSW 11 15 6 8 1008.4 1008.3 0.0
21/05:00am 24.7 27.3 20.4 77 2.8 WNW 7 9 4 5 1007.6 1007.5 0.0
21/04:30am 24.1 27.9 20.2 79 2.5 CALM 0 6 0 3 1007.2 1007.1 0.0
21/04:00am 24.6 27.3 20.3 77 2.8 WSW 6 7 3 4 1007.3 1007.2 0.0
21/03:30am 25.3 27.5 20.3 74 3.3 WNW 9 13 5 7 1007.1 1007.0 0.0
21/03:00am 25.4 27.6 20.4 74 3.3 WNW 9 13 5 7 1007.0 1006.9 0.0
21/02:30am 25.5 27.4 20.5 74 3.3 WNW 11 13 6 7 1007.1 1007.0 0.0
21/02:00am 26.1 27.8 20.9 73 3.4 NW 13 19 7 10 1007.3 1007.2 0.0
21/01:30am 26.6 27.1 20.9 71 3.8 NNW 19 28 10 15 1007.4 1007.3 0.0
21/01:00am 26.5 27.5 21.0 72 3.6 NNW 17 24 9 13 1007.8 1007.7 0.0
21/12:30am 26.8 27.3 20.9 70 3.9 NNW 19 24 10 13 1007.9 1007.8 0.0
21/12:00am 27.1 27.5 20.9 69 4.1 NNW 20 30 11 16 1008.1 1008.0 0.0
 
Date/Time
EST
Temp
°C
App
Temp
°C
Dew
Point
°C
Rel
Hum
%
Delta-T
°C
Wind Press
QNH
hPa
Press
MSL
hPa
Rain since
9am
mm
Dir  Spd
km/h
Gust
km/h
Spd
kts
Gust
kts
20/11:30pm 27.2 28.9 21.0 69 4.1 NNW 13 22 7 12 1008.4 1008.3 0.0
20/11:00pm 27.3 28.3 21.1 69 4.1 NNW 17 22 9 12 1008.4 1008.3 0.0
20/10:30pm 27.2 28.7 21.2 69 4.0 NNW 15 20 8 11 1008.5 1008.4 0.0
20/10:00pm 27.3 28.7 21.1 69 4.1 NW 15 19 8 10 1008.7 1008.6 0.0
20/09:30pm 27.6 28.8 21.4 69 4.1 NNW 17 22 9 12 1008.4 1008.3 0.0
20/09:00pm 27.7 28.8 21.3 68 4.3 N 17 24 9 13 1008.2 1008.1 0.0
20/08:30pm 27.9 29.4 21.2 67 4.5 N 15 20 8 11 1008.1 1008.0 0.0
20/08:00pm 28.2 29.4 20.7 63 5.0 N 15 20 8 11 1007.9 1007.8 0.0
20/07:30pm 28.7 28.9 19.3 56 6.1 N 17 24 9 13 1007.5 1007.4 0.0
20/07:00pm 29.2 29.0 18.6 52 6.8 N 17 22 9 12 1007.0 1006.9 0.0
20/06:30pm 29.6 30.6 20.2 57 6.2 NNE 15 20 8 11 1006.4 1006.3 0.0
20/06:00pm 30.3 30.4 20.0 54 6.8 N 19 24 10 13 1005.9 1005.8 0.0
20/05:30pm 31.1 30.5 18.8 48 8.0 N 20 30 11 16 1005.5 1005.4 0.0
20/05:00pm 32.1 30.9 17.6 42 9.3 NNE 20 30 11 16 1005.1 1005.0 0.0
20/04:30pm 32.5 29.7 16.3 37 10.2 NNE 26 33 14 18 1005.1 1005.0 0.0
20/04:00pm 33.1 30.0 15.6 35 11.0 NE 26 37 14 20 1005.5 1005.4 0.0
20/03:30pm 34.1 31.5 16.0 34 11.4 NE 24 32 13 17 1005.8 1005.7 0.0
20/03:00pm 33.6 30.8 17.3 37 10.5 NE 28 35 15 19 1006.3 1006.2 0.0
20/02:30pm 34.0 32.8 18.5 40 10.1 NNE 22 33 12 18 1006.5 1006.4 0.0
20/02:00pm 34.5 34.3 18.5 38 10.5 N 17 24 9 13 1006.9 1006.8 0.0
20/01:30pm 34.5 34.5 18.9 39 10.2 NNW 17 22 9 12 1007.3 1007.2 0.0
20/01:00pm 33.8 35.1 20.2 44 9.1 N 13 22 7 12 1007.7 1007.6 0.0
20/12:30pm 34.0 34.7 20.4 45 9.1 NNW 17 30 9 16 1008.2 1008.1 0.0
20/12:00pm 33.2 34.4 20.7 47 8.4 NNW 15 24 8 13 1008.6 1008.5 0.0
20/11:30am 32.6 33.3 20.5 49 8.1 NNW 17 24 9 13 1009.0 1008.9 0.0
20/11:00am 31.8 33.1 20.1 50 7.8 N 13 22 7 12 1009.3 1009.2 0.0
20/10:30am 31.9 33.7 21.1 52 7.3 N 13 20 7 11 1009.6 1009.5 0.0
20/10:00am 31.1 33.2 21.0 55 6.8 N 11 22 6 12 1009.9 1009.8 0.0
20/09:30am 30.7 32.1 20.3 53 6.9 NNW 13 19 7 10 1010.2 1010.1 0.0
20/09:00am 30.1 31.0 20.1 55 6.6 NNW 15 20 8 11 1010.3 1010.2 0.0
20/08:30am 29.3 30.8 21.3 62 5.3 N 15 22 8 12 1010.3 1010.2 0.0

Other Formats:

Comma delimited format used in spreadsheet applications
http://www.bom.gov.au/fwo/IDQ60801/IDQ60801.94381.axf

JavaScript Object Notation format (JSON) in row-major order
http://www.bom.gov.au/fwo/IDQ60801/IDQ60801.94381.json